Time;durP1;ratioP1;P1;durP2;ratioP2;P2;SDS_P1;SDS_P2;PMS_P1;PMS_P2;Temp;Humidity;BMP_temperature;BMP_pressure;BME280_temperature;BME280_humidity;BME280_pressure;Samples;Min_cycle;Max_cycle;Signal;HPM_P1;HPM_P2
2022/04/14 00:01:32;;;;;;;5.75;2.35;;;;;;;13.07;77.51;100952.50;4826834;29;20030;-74
2022/04/14 00:03:58;;;;;;;4.22;2.10;;;;;;;13.04;77.55;100953.94;4826738;29;20590;-74
2022/04/14 00:06:23;;;;;;;3.78;2.20;;;;;;;13.01;77.77;100954.53;4806269;29;20042;-74
2022/04/14 00:08:52;;;;;;;3.78;2.58;;;;;;;12.99;78.49;100956.78;4810224;29;20034;-74
2022/04/14 00:11:18;;;;;;;4.63;2.10;;;;;;;12.95;77.96;100962.13;4813994;29;20557;-75
2022/04/14 00:13:44;;;;;;;5.93;2.92;;;;;;;12.94;79.03;100959.63;4830125;29;20496;-74
2022/04/14 00:16:09;;;;;;;4.95;2.58;;;;;;;12.92;79.61;100959.09;4810973;29;20038;-74
2022/04/14 00:18:35;;;;;;;3.25;1.90;;;;;;;12.90;79.21;100964.97;4810151;29;20041;-74
2022/04/14 00:21:00;;;;;;;3.95;1.95;;;;;;;12.91;79.33;100965.81;4828854;29;20484;-74
2022/04/14 00:23:26;;;;;;;4.03;1.98;;;;;;;12.90;78.95;100972.53;4796753;29;20042;-74
2022/04/14 00:25:51;;;;;;;4.22;2.00;;;;;;;12.86;78.85;100963.91;4829838;29;20109;-74
2022/04/14 00:28:17;;;;;;;4.22;2.03;;;;;;;12.85;78.58;100965.03;4844000;29;20038;-75
2022/04/14 00:30:43;;;;;;;4.95;2.30;;;;;;;12.82;78.32;100964.81;4829521;29;20038;-74
2022/04/14 00:33:08;;;;;;;4.90;2.00;;;;;;;12.82;79.06;100962.03;4812380;29;20037;-75
2022/04/14 00:35:34;;;;;;;4.18;1.92;;;;;;;12.81;78.92;100965.94;4825588;29;20084;-74
2022/04/14 00:37:59;;;;;;;3.60;1.75;;;;;;;12.78;78.98;100960.94;4808376;29;20503;-75
2022/04/14 00:40:25;;;;;;;3.90;2.15;;;;;;;12.72;79.54;100963.81;4847350;29;20043;-74
2022/04/14 00:42:50;;;;;;;3.50;2.13;;;;;;;12.72;78.00;100969.38;4830045;29;20034;-74
2022/04/14 00:45:16;;;;;;;3.50;2.00;;;;;;;12.66;78.04;100969.75;4798489;29;20042;-75
2022/04/14 00:47:41;;;;;;;5.18;2.40;;;;;;;12.63;78.43;100968.38;4802918;29;20039;-74
2022/04/14 00:50:07;;;;;;;4.57;2.10;;;;;;;12.60;78.20;100971.75;4828513;29;20037;-75
2022/04/14 00:52:33;;;;;;;3.88;2.45;;;;;;;12.59;79.34;100970.13;4813248;29;20026;-75
2022/04/14 00:54:58;;;;;;;4.22;2.28;;;;;;;12.60;79.07;100976.50;4813349;29;20030;-75
2022/04/14 00:57:24;;;;;;;6.07;2.28;;;;;;;12.53;78.36;100965.69;4828124;29;20041;-74
2022/04/14 00:59:49;;;;;;;3.17;2.05;;;;;;;12.54;78.26;100978.53;4827962;29;20033;-75
2022/04/14 01:02:15;;;;;;;4.75;2.10;;;;;;;12.49;78.38;100968.25;4827950;29;20072;-75
2022/04/14 01:04:40;;;;;;;3.38;2.08;;;;;;;12.48;78.16;100968.53;4831055;29;20038;-75
2022/04/14 01:07:07;;;;;;;3.67;1.88;;;;;;;12.50;78.31;100969.09;4832260;29;20073;-75
2022/04/14 01:09:33;;;;;;;3.97;1.80;;;;;;;12.45;78.24;100964.41;4840876;29;20034;-75
2022/04/14 01:11:59;;;;;;;4.07;1.90;;;;;;;12.44;78.22;100965.53;4827943;29;20527;-75
2022/04/14 01:14:31;;;;;;;3.13;1.98;;;;;;;12.41;78.21;100963.34;4809989;29;20067;-75
2022/04/14 01:16:59;;;;;;;5.45;1.80;;;;;;;12.43;78.56;100963.06;4839070;29;20038;-75
2022/04/14 01:19:25;;;;;;;3.92;1.73;;;;;;;12.45;78.83;100967.19;4829097;29;20396;-75
2022/04/14 01:22:02;;;;;;;3.97;1.83;;;;;;;12.42;78.66;100969.72;4827873;29;20031;-75
2022/04/14 01:24:28;;;;;;;2.30;1.95;;;;;;;12.41;79.09;100977.25;4827943;29;20022;-75
2022/04/14 01:26:54;;;;;;;4.10;1.83;;;;;;;12.40;79.34;100972.00;4812641;29;20076;-75
2022/04/14 01:29:21;;;;;;;3.50;2.00;;;;;;;12.40;79.40;100963.63;4831187;29;20038;-74
2022/04/14 01:31:47;;;;;;;4.22;1.75;;;;;;;12.39;79.11;100964.75;4830738;29;20034;-74
2022/04/14 01:34:12;;;;;;;2.53;1.60;;;;;;;12.37;79.44;100961.41;4827616;29;20037;-74
2022/04/14 01:36:38;;;;;;;3.35;1.55;;;;;;;12.35;79.43;100961.72;4812251;29;20091;-75
2022/04/14 01:39:03;;;;;;;2.83;1.40;;;;;;;12.32;78.91;100955.94;4812167;29;20503;-74
2022/04/14 01:41:29;;;;;;;4.80;1.77;;;;;;;12.30;78.99;100961.78;4827388;29;20038;-74
2022/04/14 01:43:54;;;;;;;3.25;1.60;;;;;;;12.27;78.87;100959.59;4827345;29;20050;-74
2022/04/14 01:46:20;;;;;;;3.67;1.90;;;;;;;12.23;78.07;100967.72;4828543;29;20031;-74
2022/04/14 01:48:47;;;;;;;2.63;1.70;;;;;;;12.20;78.13;100965.50;4827307;29;20038;-74
2022/04/14 01:51:12;;;;;;;2.38;1.60;;;;;;;12.15;77.77;100959.16;4828967;29;20038;-74
2022/04/14 01:53:38;;;;;;;2.03;1.50;;;;;;;12.11;77.70;100964.47;4829729;29;20041;-74
2022/04/14 01:56:03;;;;;;;4.57;1.80;;;;;;;12.01;77.81;100959.03;4829861;29;20045;-74
2022/04/14 01:58:29;;;;;;;2.80;2.10;;;;;;;11.94;78.13;100970.47;4812255;29;20038;-74
2022/04/14 02:00:54;;;;;;;2.83;1.63;;;;;;;11.92;78.44;100960.75;4797059;29;20031;-74
2022/04/14 02:03:20;;;;;;;3.38;2.13;;;;;;;11.90;79.04;100968.59;4812133;29;20392;-74
2022/04/14 02:05:45;;;;;;;3.55;1.90;;;;;;;11.84;78.70;100974.16;4812300;29;20518;-74
2022/04/14 02:08:11;;;;;;;3.42;1.70;;;;;;;11.81;78.94;100977.53;4826728;29;20388;-74
2022/04/14 02:10:36;;;;;;;3.42;2.05;;;;;;;11.79;78.78;100973.38;4778955;29;20034;-74
2022/04/14 02:13:02;;;;;;;5.88;2.03;;;;;;;11.72;78.34;100978.44;4810264;29;20039;-74
2022/04/14 02:15:27;;;;;;;3.13;1.80;;;;;;;11.65;78.35;100976.00;4811339;29;20038;-74
2022/04/14 02:17:53;;;;;;;3.20;1.77;;;;;;;11.63;78.82;100987.38;4818941;29;20060;-74
2022/04/14 02:20:18;;;;;;;3.72;2.10;;;;;;;11.54;78.85;100977.19;4814937;29;20034;-74
2022/04/14 02:22:44;;;;;;;5.93;2.00;;;;;;;11.54;78.96;100977.19;4808429;29;20035;-74
2022/04/14 02:25:09;;;;;;;4.75;2.10;;;;;;;11.47;78.69;100979.44;4800898;29;20034;-74
2022/04/14 02:27:35;;;;;;;3.28;1.70;;;;;;;11.44;78.76;100977.25;4826624;29;20059;-74
2022/04/14 02:30:01;;;;;;;5.80;2.00;;;;;;;11.35;78.87;100977.84;4827620;29;20060;-74
2022/04/14 02:32:26;;;;;;;4.18;1.75;;;;;;;11.31;78.86;100981.50;4818107;29;20565;-73
2022/04/14 02:34:52;;;;;;;3.67;1.88;;;;;;;11.26;78.79;100984.31;4810615;29;20519;-74
2022/04/14 02:37:17;;;;;;;3.17;1.80;;;;;;;11.21;79.50;100981.56;4826540;29;20038;-74
2022/04/14 02:39:42;;;;;;;3.78;1.88;;;;;;;11.15;79.44;100986.31;4826599;29;20043;-74
2022/04/14 02:42:08;;;;;;;3.25;1.70;;;;;;;11.12;78.94;100984.13;4828343;29;20091;-74
2022/04/14 02:44:33;;;;;;;2.95;1.90;;;;;;;11.07;79.40;100982.19;4830239;29;20531;-74
2022/04/14 02:46:59;;;;;;;4.70;1.92;;;;;;;11.03;79.46;100985.81;4826656;29;20536;-74
2022/04/14 02:49:24;;;;;;;3.75;1.77;;;;;;;10.95;79.76;100981.72;4820757;29;20051;-74
2022/04/14 02:51:50;;;;;;;3.15;1.90;;;;;;;10.91;79.62;100981.44;4826615;29;20023;-74
2022/04/14 02:54:16;;;;;;;5.47;2.10;;;;;;;10.88;79.75;100976.44;4810842;29;20031;-74
2022/04/14 02:56:41;;;;;;;3.60;1.90;;;;;;;10.86;79.48;100980.63;4811027;29;20037;-74
2022/04/14 02:59:07;;;;;;;5.28;1.98;;;;;;;10.79;79.73;100972.59;4827601;29;20063;-74
2022/04/14 03:01:32;;;;;;;4.57;1.90;;;;;;;10.73;79.85;100973.75;4780986;29;20037;-74
2022/04/14 03:03:58;;;;;;;2.58;1.63;;;;;;;10.69;80.19;100973.44;4824872;29;20080;-74
2022/04/14 03:06:23;;;;;;;3.60;2.05;;;;;;;10.67;80.05;100959.03;4809099;29;20047;-74
2022/04/14 03:08:49;;;;;;;3.67;2.15;;;;;;;10.64;80.20;100961.53;4826911;29;20046;-74
2022/04/14 03:11:14;;;;;;;4.85;1.83;;;;;;;10.62;79.97;100961.00;4827702;29;20491;-74
2022/04/14 03:13:42;;;;;;;3.30;1.90;;;;;;;10.55;80.11;100952.97;4809511;29;20031;-74
2022/04/14 03:16:07;;;;;;;3.47;1.80;;;;;;;10.50;80.75;100951.06;4804759;29;20506;-74
2022/04/14 03:18:33;;;;;;;4.07;1.75;;;;;;;10.46;80.46;100955.50;4835741;29;20042;-74
2022/04/14 03:20:59;;;;;;;4.25;1.85;;;;;;;10.44;80.64;100954.94;4804187;29;20043;-74
2022/04/14 03:23:24;;;;;;;4.05;2.03;;;;;;;10.41;80.25;100949.13;4790198;29;20038;-74
2022/04/14 03:25:50;;;;;;;3.05;1.80;;;;;;;10.31;80.65;100946.38;4825949;29;20087;-74
2022/04/14 03:28:15;;;;;;;2.67;1.60;;;;;;;10.29;80.35;100952.22;4811082;29;20068;-74
2022/04/14 03:30:41;;;;;;;4.93;1.80;;;;;;;10.26;80.52;100955.53;4826298;29;20047;-74
2022/04/14 03:33:06;;;;;;;3.15;1.80;;;;;;;10.25;80.63;100951.91;4830970;29;20038;-74
2022/04/14 03:35:32;;;;;;;3.08;2.13;;;;;;;10.18;81.07;100961.66;4827901;29;20500;-74
2022/04/14 03:37:58;;;;;;;5.22;2.13;;;;;;;10.18;80.79;100948.59;4840750;29;20038;-74
2022/04/14 03:40:24;;;;;;;2.45;1.65;;;;;;;10.14;80.83;100954.97;4812272;29;20048;-74
2022/04/14 03:42:49;;;;;;;4.35;1.80;;;;;;;10.08;80.91;100951.38;4814123;29;20038;-74
2022/04/14 03:45:15;;;;;;;3.80;1.85;;;;;;;10.04;80.63;100951.13;4829549;29;20039;-74
2022/04/14 03:47:40;;;;;;;4.00;1.70;;;;;;;10.01;80.57;100960.00;4829324;29;20046;-74
2022/04/14 03:50:07;;;;;;;3.28;1.92;;;;;;;9.98;80.59;100949.47;4830507;29;20050;-74
2022/04/14 03:52:33;;;;;;;4.07;2.00;;;;;;;9.98;80.69;100955.00;4829122;29;20506;-74
2022/04/14 03:54:58;;;;;;;4.72;1.92;;;;;;;9.93;81.06;100956.97;4829338;29;20034;-74
2022/04/14 03:57:24;;;;;;;5.38;1.92;;;;;;;9.87;80.88;100950.59;4818006;29;20046;-74
2022/04/14 03:59:50;;;;;;;4.95;1.77;;;;;;;9.87;80.88;100949.75;4815388;29;20041;-74
2022/04/14 04:02:15;;;;;;;4.78;2.00;;;;;;;9.82;80.71;100945.88;4830130;29;20041;-74
2022/04/14 04:04:41;;;;;;;4.15;1.88;;;;;;;9.80;80.87;100950.84;4829010;29;20026;-74
2022/04/14 04:07:06;;;;;;;5.35;2.00;;;;;;;9.77;80.72;100953.34;4828867;29;20126;-74
2022/04/14 04:09:33;;;;;;;6.03;2.10;;;;;;;9.72;81.11;100951.44;4828885;29;20511;-74
2022/04/14 04:11:59;;;;;;;3.70;2.03;;;;;;;9.70;81.15;100953.66;4829008;29;20062;-74
2022/04/14 04:14:24;;;;;;;3.78;1.90;;;;;;;9.66;81.12;100951.69;4830111;29;20381;-74
2022/04/14 04:16:50;;;;;;;3.88;2.22;;;;;;;9.65;81.33;100950.03;4817199;29;20045;-74
2022/04/14 04:19:16;;;;;;;3.83;2.03;;;;;;;9.60;81.55;100959.19;4828833;29;20034;-74
2022/04/14 04:21:41;;;;;;;4.70;2.08;;;;;;;9.55;82.15;100953.63;4833394;29;20117;-74
2022/04/14 04:24:07;;;;;;;3.42;1.77;;;;;;;9.52;81.78;100959.72;4819761;29;20034;-74
2022/04/14 04:26:33;;;;;;;5.72;2.30;;;;;;;9.49;81.72;100954.75;4828643;29;20037;-74
2022/04/14 04:28:58;;;;;;;4.45;2.10;;;;;;;9.47;81.90;100952.25;4829605;29;20053;-74
2022/04/14 04:31:23;;;;;;;3.97;2.08;;;;;;;9.51;81.61;100970.00;4828221;29;20392;-73
2022/04/14 04:33:51;;;;;;;7.43;2.67;;;;;;;9.45;82.08;100954.47;4828638;29;20034;-74
2022/04/14 04:36:22;;;;;;;3.55;2.33;;;;;;;9.43;81.87;100964.16;4813606;29;20109;-74
2022/04/14 04:38:48;;;;;;;4.70;2.30;;;;;;;9.36;82.24;100958.88;4829494;29;20030;-74
2022/04/14 04:41:13;;;;;;;3.47;2.17;;;;;;;9.36;82.00;100967.19;4811072;29;20035;-74
2022/04/14 04:43:39;;;;;;;3.78;2.25;;;;;;;9.30;81.99;100959.97;4806475;29;20105;-74
2022/04/14 04:46:04;;;;;;;3.95;2.20;;;;;;;9.27;81.75;100964.13;4794475;29;20052;-74
2022/04/14 04:48:30;;;;;;;3.22;2.10;;;;;;;9.25;81.81;100958.03;4815826;29;20081;-74
2022/04/14 04:50:55;;;;;;;7.25;2.38;;;;;;;9.23;82.25;100956.66;4813212;29;20072;-74
2022/04/14 04:53:21;;;;;;;4.05;2.50;;;;;;;9.21;82.09;100959.69;4812098;29;20035;-74
2022/04/14 04:55:46;;;;;;;4.93;2.40;;;;;;;9.16;82.11;100956.91;4818391;29;20046;-74
2022/04/14 04:58:12;;;;;;;5.80;2.35;;;;;;;9.17;81.76;100964.13;4813081;29;20038;-74
2022/04/14 05:00:38;;;;;;;3.55;2.00;;;;;;;9.13;81.65;100961.03;4813180;29;20558;-73
2022/04/14 05:03:10;;;;;;;4.00;2.28;;;;;;;9.10;81.94;100969.09;4813364;29;20034;-74
2022/04/14 05:05:40;;;;;;;4.07;2.30;;;;;;;9.08;81.81;100955.53;4811581;29;20489;-74
2022/04/14 05:08:07;;;;;;;4.43;2.65;;;;;;;9.05;82.04;100969.06;4828993;29;20038;-74
2022/04/14 05:10:33;;;;;;;4.60;2.55;;;;;;;8.99;82.15;100967.38;4815811;29;20026;-74
2022/04/14 05:12:59;;;;;;;5.03;2.50;;;;;;;9.00;82.50;100966.28;4831855;29;20107;-74
2022/04/14 05:15:25;;;;;;;6.35;3.15;;;;;;;8.99;82.18;100971.00;4826513;29;20038;-74
2022/04/14 05:17:50;;;;;;;4.25;2.53;;;;;;;8.94;82.22;100971.81;4817012;29;20094;-74
2022/04/14 05:20:16;;;;;;;4.75;2.80;;;;;;;8.89;82.65;100973.75;4827778;29;20047;-74
2022/04/14 05:22:42;;;;;;;3.85;2.40;;;;;;;8.88;82.90;100964.56;4827578;29;20038;-74
2022/04/14 05:25:07;;;;;;;3.13;2.25;;;;;;;8.89;82.43;100971.81;4828792;29;20045;-74
2022/04/14 05:27:33;;;;;;;5.32;2.45;;;;;;;8.85;82.75;100976.19;4814110;29;20042;-74
2022/04/14 05:29:58;;;;;;;5.07;2.70;;;;;;;8.83;82.55;100977.56;4812535;29;20035;-74
2022/04/14 05:32:24;;;;;;;4.70;2.20;;;;;;;8.81;82.78;100974.25;4828520;29;20044;-73
2022/04/14 05:34:49;;;;;;;6.00;2.53;;;;;;;8.80;82.60;100978.13;4813330;29;20103;-74
2022/04/14 05:37:15;;;;;;;4.45;2.60;;;;;;;8.79;83.41;100979.22;4830904;29;20039;-73
2022/04/14 05:39:40;;;;;;;6.22;2.90;;;;;;;8.81;83.83;100988.13;4828726;29;20034;-74
2022/04/14 05:42:06;;;;;;;5.43;2.63;;;;;;;8.82;83.91;100978.69;4827713;29;20083;-73
2022/04/14 05:44:31;;;;;;;5.63;2.80;;;;;;;8.86;84.44;100986.19;4828542;29;20050;-74
2022/04/14 05:46:57;;;;;;;4.82;2.60;;;;;;;8.92;85.01;100989.81;4827408;29;20030;-74
2022/04/14 05:49:22;;;;;;;4.03;2.78;;;;;;;8.94;84.46;100982.03;4827223;29;20038;-74
2022/04/14 05:51:48;;;;;;;5.78;2.67;;;;;;;8.97;84.72;100981.53;4827164;29;20034;-74
2022/04/14 05:54:14;;;;;;;7.30;2.90;;;;;;;9.06;84.22;100988.19;4828480;29;20544;-74
2022/04/14 05:56:40;;;;;;;5.68;2.88;;;;;;;9.10;86.54;100994.84;4827611;29;20141;-74
2022/04/14 05:59:06;;;;;;;5.20;2.42;;;;;;;9.17;86.78;101003.75;4827739;29;20117;-74
2022/04/14 06:01:31;;;;;;;3.25;2.40;;;;;;;9.27;86.20;101004.88;4846319;29;20038;-74
2022/04/14 06:03:57;;;;;;;7.22;2.20;;;;;;;9.36;85.84;101004.09;4826791;29;20067;-74
2022/04/14 06:06:22;;;;;;;5.13;2.97;;;;;;;9.48;88.63;101001.03;4828365;29;20038;-74
2022/04/14 06:08:48;;;;;;;5.50;2.72;;;;;;;9.60;91.80;101003.56;4827894;29;20035;-74
2022/04/14 06:11:13;;;;;;;5.53;2.75;;;;;;;9.73;89.76;101005.78;4827026;29;20230;-74
2022/04/14 06:13:39;;;;;;;4.22;2.25;;;;;;;9.87;86.89;101005.25;4828140;29;20030;-74
2022/04/14 06:16:04;;;;;;;4.47;2.72;;;;;;;10.00;86.01;101008.31;4820863;29;20065;-74
2022/04/14 06:18:30;;;;;;;3.80;2.10;;;;;;;10.15;84.38;101006.63;4818262;29;20035;-74
2022/04/14 06:20:56;;;;;;;5.32;2.30;;;;;;;10.29;83.89;101007.75;4823065;29;20519;-74
2022/04/14 06:23:21;;;;;;;3.40;2.33;;;;;;;10.43;83.16;101008.00;4828456;29;20034;-74
2022/04/14 06:25:50;;;;;;;3.53;2.22;;;;;;;10.59;83.65;101003.25;4845319;29;20105;-74
2022/04/14 06:28:18;;;;;;;7.00;3.20;;;;;;;10.74;83.86;101004.00;4827008;29;20407;-74
2022/04/14 06:30:46;;;;;;;4.63;2.72;;;;;;;10.90;83.42;101002.00;4827691;29;20030;-74
2022/04/14 06:33:11;;;;;;;5.03;2.35;;;;;;;11.07;82.94;101000.81;4827562;29;20037;-75
2022/04/14 06:35:37;;;;;;;3.97;2.47;;;;;;;11.23;82.08;101002.41;4826180;29;20026;-75
2022/04/14 06:38:02;;;;;;;5.65;3.17;;;;;;;11.41;83.41;101015.63;4826347;29;20038;-75
2022/04/14 06:40:28;;;;;;;3.80;2.70;;;;;;;11.57;81.31;101010.81;4826517;29;20034;-75
2022/04/14 06:42:53;;;;;;;6.05;3.15;;;;;;;11.75;81.31;101011.22;4827495;29;20550;-74
2022/04/14 06:45:19;;;;;;;7.32;2.90;;;;;;;11.92;79.64;101013.63;4826649;29;20049;-74
2022/04/14 06:47:44;;;;;;;6.03;2.75;;;;;;;12.08;82.08;101006.81;4826785;29;20039;-75
2022/04/14 06:50:10;;;;;;;5.20;2.92;;;;;;;12.25;82.80;101001.63;4830435;29;20030;-75
2022/04/14 06:52:39;;;;;;;7.22;3.40;;;;;;;12.43;81.57;101004.84;4827318;29;20453;-75
2022/04/14 06:55:06;;;;;;;6.43;3.88;;;;;;;12.61;81.71;101009.63;4827619;29;20098;-75
2022/04/14 06:57:31;;;;;;;8.88;3.60;;;;;;;12.81;80.60;101013.31;4826407;29;20034;-75
2022/04/14 06:59:57;;;;;;;6.25;3.20;;;;;;;13.00;79.64;101019.75;4811309;29;20041;-75
2022/04/14 07:02:22;;;;;;;6.85;3.72;;;;;;;13.17;81.81;101013.69;4826942;29;20038;-75
2022/04/14 07:04:48;;;;;;;8.68;4.20;;;;;;;13.34;82.13;101014.03;4824799;29;20042;-75
2022/04/14 07:07:14;;;;;;;7.20;4.00;;;;;;;13.51;82.89;101012.69;4825952;29;20050;-75
2022/04/14 07:09:39;;;;;;;6.57;3.92;;;;;;;13.67;82.82;101027.25;4825975;29;20039;-75
2022/04/14 07:12:06;;;;;;;8.32;4.95;;;;;;;13.81;84.22;101030.94;4825558;29;20105;-75
2022/04/14 07:14:32;;;;;;;10.80;5.15;;;;;;;13.97;84.16;101032.34;4829026;29;20048;-75
2022/04/14 07:16:58;;;;;;;10.23;5.10;;;;;;;14.14;84.20;101034.59;4823349;29;20497;-75
2022/04/14 07:19:23;;;;;;;10.50;5.20;;;;;;;14.26;83.42;101034.94;4826962;29;20039;-75
2022/04/14 07:22:15;;;;;;;6.38;4.95;;;;;;;14.41;83.06;101036.63;4825492;29;20560;-78
2022/04/14 07:24:40;;;;;;;7.75;4.70;;;;;;;14.58;81.82;101040.84;4743906;30;20548;-75
2022/04/14 07:27:06;;;;;;;8.35;4.43;;;;;;;14.75;82.48;101039.09;4819479;29;20093;-75
2022/04/14 07:29:31;;;;;;;7.60;4.70;;;;;;;14.86;80.48;101042.53;4841304;29;20031;-75
2022/04/14 07:31:57;;;;;;;8.27;4.63;;;;;;;15.00;80.77;101041.69;4804258;29;20034;-76
2022/04/14 07:34:22;;;;;;;7.55;4.40;;;;;;;15.15;80.68;101038.56;4826973;29;20031;-75
2022/04/14 07:36:48;;;;;;;8.10;4.32;;;;;;;15.30;79.37;101041.06;4823719;29;20496;-75
2022/04/14 07:39:13;;;;;;;7.40;4.25;;;;;;;15.42;79.40;101032.94;4827963;29;20042;-76
2022/04/14 07:41:39;;;;;;;10.35;4.72;;;;;;;15.58;79.54;101032.59;4822867;29;20034;-76
2022/04/14 07:44:05;;;;;;;9.98;4.63;;;;;;;15.73;78.76;101026.66;4825446;29;20133;-76
2022/04/14 07:46:30;;;;;;;5.88;4.30;;;;;;;15.91;78.49;101043.59;4822439;29;20039;-75
2022/04/14 07:48:56;;;;;;;9.35;4.50;;;;;;;16.03;78.91;101041.09;4822861;29;20037;-76
2022/04/14 07:51:21;;;;;;;7.15;4.97;;;;;;;16.18;79.23;101039.88;4825627;29;20038;-76
2022/04/14 07:53:47;;;;;;;6.82;4.82;;;;;;;16.34;78.38;101040.31;4825685;29;20408;-76
2022/04/14 07:56:13;;;;;;;5.60;4.35;;;;;;;16.49;78.27;101043.53;4825763;29;20041;-75
2022/04/14 07:58:39;;;;;;;7.65;5.07;;;;;;;16.62;78.43;101053.00;4827122;29;20117;-76
2022/04/14 08:01:04;;;;;;;8.85;4.63;;;;;;;16.73;77.41;101047.94;4822327;29;20042;-76
2022/04/14 08:03:30;;;;;;;9.07;5.00;;;;;;;16.86;78.44;101038.63;4829428;29;20034;-76
2022/04/14 08:05:55;;;;;;;8.00;4.80;;;;;;;17.02;76.58;101035.38;4812161;29;20539;-76
2022/04/14 08:08:21;;;;;;;7.07;4.20;;;;;;;17.19;76.70;101038.25;4824495;29;20046;-76
2022/04/14 08:10:48;;;;;;;6.28;4.60;;;;;;;17.34;76.40;101034.16;4826504;29;20167;-76
2022/04/14 08:13:13;;;;;;;8.00;5.22;;;;;;;17.46;77.67;101025.91;4810038;29;20101;-76
2022/04/14 08:15:39;;;;;;;6.60;4.32;;;;;;;17.57;76.61;101030.06;4822117;29;20030;-76
2022/04/14 08:18:08;;;;;;;10.55;4.80;;;;;;;17.77;76.37;101037.00;4822341;29;20037;-76
2022/04/14 08:20:35;;;;;;;10.55;4.50;;;;;;;17.91;75.68;101036.88;4825544;29;20061;-76
2022/04/14 08:23:01;;;;;;;8.30;4.50;;;;;;;18.03;75.05;101033.41;4798016;29;20030;-76
2022/04/14 08:25:28;;;;;;;6.55;4.90;;;;;;;18.14;75.49;101031.09;4819558;29;20049;-76
2022/04/14 08:27:54;;;;;;;7.85;4.63;;;;;;;18.27;75.74;101032.88;4833501;29;20561;-76
2022/04/14 08:30:21;;;;;;;7.57;4.50;;;;;;;18.39;76.09;101029.38;4829764;29;20031;-76
2022/04/14 08:32:47;;;;;;;7.80;4.72;;;;;;;18.57;76.80;101030.97;4829576;29;20203;-76
2022/04/14 08:35:13;;;;;;;8.20;5.03;;;;;;;18.64;76.65;101031.31;4826461;29;20086;-76
2022/04/14 08:37:39;;;;;;;7.50;4.20;;;;;;;18.75;75.41;101037.41;4829475;29;20412;-76
2022/04/14 08:40:06;;;;;;;7.35;4.35;;;;;;;18.94;74.90;101029.41;4828247;29;20058;-76
2022/04/14 08:42:34;;;;;;;7.30;3.83;;;;;;;19.11;73.70;101028.47;4829576;29;20091;-75
2022/04/14 08:45:02;;;;;;;7.78;3.92;;;;;;;19.21;71.90;101021.63;4828252;29;20054;-75
2022/04/14 08:47:29;;;;;;;6.15;3.50;;;;;;;19.41;71.96;101017.19;4829330;29;20055;-75
2022/04/14 08:49:55;;;;;;;6.97;3.40;;;;;;;19.55;69.26;101019.75;4828534;29;20046;-75
2022/04/14 08:52:21;;;;;;;8.88;2.55;;;;;;;19.72;70.12;101018.81;4808021;29;20113;-75
2022/04/14 08:54:48;;;;;;;4.85;2.30;;;;;;;19.88;67.20;101024.66;4794760;29;20124;-75
2022/04/14 08:57:13;;;;;;;6.00;2.10;;;;;;;20.03;68.21;101029.66;4812952;29;20074;-75
2022/04/14 08:59:45;;;;;;;4.05;2.05;;;;;;;20.17;65.01;101030.19;4806963;29;20034;-74
2022/04/14 09:02:13;;;;;;;5.93;1.90;;;;;;;20.31;67.49;101030.72;4813084;29;20381;-74
2022/04/14 09:04:41;;;;;;;4.05;1.90;;;;;;;20.47;65.83;101039.31;4828014;29;20400;-74
2022/04/14 09:07:06;;;;;;;5.40;2.20;;;;;;;20.61;64.33;101044.69;4812743;29;20069;-75
2022/04/14 09:09:42;;;;;;;5.50;2.40;;;;;;;20.74;60.64;101040.72;4811590;29;20034;-78
2022/04/14 09:12:12;;;;;;;6.13;2.55;;;;;;;20.85;61.99;101045.91;4797833;29;20129;-78
2022/04/14 09:14:42;;;;;;;5.13;2.70;;;;;;;20.95;60.13;101048.28;4812580;29;20041;-78
2022/04/14 09:17:11;;;;;;;6.97;2.13;;;;;;;21.06;60.63;101043.81;4825331;29;20034;-78
2022/04/14 09:19:41;;;;;;;5.28;2.38;;;;;;;21.23;61.08;101041.91;4815007;29;20045;-78
2022/04/14 09:22:16;;;;;;;6.40;2.30;;;;;;;21.37;61.29;101050.91;4827371;29;20036;-78
2022/04/14 09:24:48;;;;;;;3.33;2.10;;;;;;;21.54;61.24;101050.63;4798042;29;20022;-78
2022/04/14 09:27:39;;;;;;;5.20;1.77;;;;;;;21.67;58.50;101045.78;4828247;29;20066;-78
2022/04/14 09:30:06;;;;;;;4.30;2.42;;;;;;;21.70;59.04;101047.88;4808357;29;20049;-78
2022/04/14 09:32:39;;;;;;;5.32;2.80;;;;;;;21.79;58.86;101047.78;4814791;29;20122;-78
2022/04/14 09:35:15;;;;;;;8.55;3.40;;;;;;;21.82;59.32;101042.22;4823777;29;20046;-78
2022/04/14 09:37:43;;;;;;;6.40;3.55;;;;;;;21.88;57.90;101048.44;4808211;29;20035;-78
2022/04/14 09:40:16;;;;;;;5.05;2.42;;;;;;;22.06;57.23;101041.31;4789905;29;20030;-78
2022/04/14 09:42:53;;;;;;;8.10;3.15;;;;;;;22.10;57.17;101047.06;4813492;29;20053;-76
2022/04/14 09:45:28;;;;;;;5.90;3.47;;;;;;;22.13;57.01;101045.53;4812723;29;20051;-76
2022/04/14 09:47:54;;;;;;;7.22;3.55;;;;;;;22.13;56.46;101042.69;4812082;29;20484;-73
2022/04/14 09:50:27;;;;;;;7.28;3.42;;;;;;;22.21;55.93;101053.06;4828441;29;20070;-76
2022/04/14 09:53:07;;;;;;;5.35;2.75;;;;;;;22.21;56.08;101050.25;4842222;29;20046;-75
2022/04/14 09:55:37;;;;;;;7.38;2.90;;;;;;;22.22;55.70;101049.88;4828541;29;20045;-75
2022/04/14 09:58:06;;;;;;;7.50;3.00;;;;;;;22.36;58.04;101055.13;4812682;29;20034;-75
2022/04/14 10:00:50;;;;;;;6.82;2.80;;;;;;;22.38;55.48;101049.09;4811749;29;20054;-76
2022/04/14 10:03:19;;;;;;;7.88;3.33;;;;;;;22.45;55.74;101052.94;4827258;29;20041;-75
2022/04/14 10:05:46;;;;;;;7.00;3.15;;;;;;;22.50;55.23;101052.69;4830014;29;20407;-71
2022/04/14 10:08:13;;;;;;;5.68;2.88;;;;;;;22.33;55.32;101043.69;4830194;29;20034;-70
2022/04/14 10:10:40;;;;;;;5.90;2.30;;;;;;;22.46;56.48;101054.59;4828219;29;20034;-76
2022/04/14 10:13:07;;;;;;;6.43;1.95;;;;;;;22.59;55.88;101057.34;4811666;29;20039;-75
2022/04/14 10:15:34;;;;;;;8.65;2.40;;;;;;;22.68;55.65;101049.53;4808639;29;20034;-74
2022/04/14 10:18:06;;;;;;;7.28;2.92;;;;;;;22.74;54.64;101053.72;4837625;29;20031;-75
2022/04/14 10:20:31;;;;;;;9.80;2.50;;;;;;;22.82;54.36;101051.91;4811811;29;20407;-74
2022/04/14 10:22:59;;;;;;;6.68;2.88;;;;;;;22.87;54.37;101052.47;4811397;29;20045;-75
2022/04/14 10:25:25;;;;;;;4.03;2.00;;;;;;;22.96;55.74;101052.31;4826671;29;20095;-72
2022/04/14 10:27:53;;;;;;;7.40;2.97;;;;;;;22.94;53.99;101058.28;4828133;29;20042;-72
2022/04/14 10:30:20;;;;;;;6.35;2.65;;;;;;;23.10;54.30;101058.34;4827505;29;20038;-71
2022/04/14 10:32:46;;;;;;;7.18;2.25;;;;;;;23.19;54.37;101049.66;4827113;29;20034;-75
2022/04/14 10:35:12;;;;;;;4.78;2.25;;;;;;;23.26;52.64;101052.63;4819822;29;20042;-72
2022/04/14 10:37:46;;;;;;;5.28;2.75;;;;;;;23.29;53.81;101051.94;4827628;29;20035;-71
2022/04/14 10:40:12;;;;;;;5.78;2.50;;;;;;;23.28;50.49;101044.59;4827901;29;20392;-71
2022/04/14 10:42:38;;;;;;;6.72;2.08;;;;;;;23.44;51.42;101052.25;4811167;29;20038;-72
2022/04/14 10:45:17;;;;;;;5.72;2.45;;;;;;;23.54;51.38;101051.69;4826411;29;20496;-71
2022/04/14 10:47:43;;;;;;;6.00;2.03;;;;;;;23.58;51.60;101049.75;4826633;29;20038;-71
2022/04/14 10:50:26;;;;;;;2.70;1.73;;;;;;;23.60;52.05;101050.22;4826899;29;20034;-71
2022/04/14 10:53:05;;;;;;;;;;;;;;;23.53;50.70;101050.03;4841853;29;20105;-71
2022/04/14 10:55:35;;;;;;;6.25;2.20;;;;;;;23.31;50.54;101058.03;4831540;29;19919;-72
2022/04/14 10:58:00;;;;;;;5.18;1.98;;;;;;;23.29;49.45;101062.41;4812030;29;20031;-72
2022/04/14 11:00:32;;;;;;;5.03;2.42;;;;;;;23.24;49.24;101057.88;4823124;29;20031;-71
2022/04/14 11:03:47;;;;;;;5.73;2.60;;;;;;;23.10;49.86;101049.03;4825068;29;20496;-72
2022/04/14 11:06:57;;;;;;;7.22;2.00;;;;;;;23.03;49.38;101058.16;4822490;29;20062;-72
2022/04/14 11:09:47;;;;;;;4.03;1.95;;;;;;;22.97;49.77;101054.75;4823998;29;20046;-72
2022/04/14 11:12:16;;;;;;;5.43;1.93;;;;;;;22.82;51.04;101055.56;4827495;29;20042;-72
2022/04/14 11:14:56;;;;;;;4.60;2.38;;;;;;;22.53;51.11;101053.97;4826945;29;20045;-72
2022/04/14 11:17:36;;;;;;;4.68;2.03;;;;;;;22.46;51.38;101060.25;4821084;29;20042;-68
2022/04/14 11:20:15;;;;;;;4.65;2.35;;;;;;;22.27;51.46;101057.28;4831226;29;20038;-67
2022/04/14 11:23:24;;;;;;;4.10;2.33;;;;;;;22.11;51.29;101053.53;4822893;29;20434;-67
2022/04/14 11:26:07;;;;;;;4.38;2.00;;;;;;;21.98;51.51;101052.75;4782496;30;20039;-67
2022/04/14 11:28:36;;;;;;;4.18;1.90;;;;;;;21.92;52.82;101051.38;4788552;30;20047;-68